sensor_id;sensor_type;location;lat;lon;timestamp;temperature;humidity
3312;DHT22;1668;49.648;8.570;2023-08-30T00:00:01;15.30;99.90
3312;DHT22;1668;49.648;8.570;2023-08-30T00:02:27;15.30;99.90
3312;DHT22;1668;49.648;8.570;2023-08-30T00:04:58;15.30;99.90
3312;DHT22;1668;49.648;8.570;2023-08-30T00:07:25;15.30;99.90
3312;DHT22;1668;49.648;8.570;2023-08-30T00:09:52;15.30;99.90
3312;DHT22;1668;49.648;8.570;2023-08-30T00:12:19;15.30;99.90
3312;DHT22;1668;49.648;8.570;2023-08-30T00:14:48;15.30;99.90
3312;DHT22;1668;49.648;8.570;2023-08-30T00:17:16;15.20;99.90
3312;DHT22;1668;49.648;8.570;2023-08-30T00:19:43;15.20;99.90
3312;DHT22;1668;49.648;8.570;2023-08-30T00:22:09;15.20;99.90
3312;DHT22;1668;49.648;8.570;2023-08-30T00:24:37;15.20;99.90
3312;DHT22;1668;49.648;8.570;2023-08-30T00:27:04;15.20;99.90
3312;DHT22;1668;49.648;8.570;2023-08-30T00:29:31;15.20;99.90
3312;DHT22;1668;49.648;8.570;2023-08-30T00:31:59;15.20;99.90
3312;DHT22;1668;49.648;8.570;2023-08-30T00:34:26;15.20;99.90
3312;DHT22;1668;49.648;8.570;2023-08-30T00:36:53;15.20;99.90
3312;DHT22;1668;49.648;8.570;2023-08-30T00:39:21;15.30;99.90
3312;DHT22;1668;49.648;8.570;2023-08-30T00:41:48;15.20;99.90
3312;DHT22;1668;49.648;8.570;2023-08-30T00:44:16;15.20;99.90
3312;DHT22;1668;49.648;8.570;2023-08-30T00:46:43;15.20;99.90
3312;DHT22;1668;49.648;8.570;2023-08-30T00:49:11;15.20;99.90
3312;DHT22;1668;49.648;8.570;2023-08-30T00:51:39;15.20;99.90
3312;DHT22;1668;49.648;8.570;2023-08-30T00:54:06;15.20;99.90
3312;DHT22;1668;49.648;8.570;2023-08-30T00:56:33;15.20;99.90
3312;DHT22;1668;49.648;8.570;2023-08-30T00:59:01;15.20;99.90
3312;DHT22;1668;49.648;8.570;2023-08-30T01:01:27;15.20;99.90
3312;DHT22;1668;49.648;8.570;2023-08-30T01:03:54;15.20;99.90
3312;DHT22;1668;49.648;8.570;2023-08-30T01:06:24;15.20;99.90
3312;DHT22;1668;49.648;8.570;2023-08-30T01:08:51;15.10;99.90
3312;DHT22;1668;49.648;8.570;2023-08-30T01:11:24;15.10;99.90
3312;DHT22;1668;49.648;8.570;2023-08-30T01:13:58;15.10;99.90
3312;DHT22;1668;49.648;8.570;2023-08-30T01:16:27;15.10;99.90
3312;DHT22;1668;49.648;8.570;2023-08-30T01:18:56;15.10;99.90
3312;DHT22;1668;49.648;8.570;2023-08-30T01:21:47;15.10;99.90
3312;DHT22;1668;49.648;8.570;2023-08-30T01:24:26;15.10;99.90
3312;DHT22;1668;49.648;8.570;2023-08-30T01:27:10;15.10;99.90
3312;DHT22;1668;49.648;8.570;2023-08-30T01:29:40;15.10;99.90
3312;DHT22;1668;49.648;8.570;2023-08-30T01:32:09;15.10;99.90
3312;DHT22;1668;49.648;8.570;2023-08-30T01:34:38;15.10;99.90
3312;DHT22;1668;49.648;8.570;2023-08-30T01:37:06;15.10;99.90
3312;DHT22;1668;49.648;8.570;2023-08-30T01:39:34;15.10;99.90
3312;DHT22;1668;49.648;8.570;2023-08-30T01:42:03;15.10;99.90
3312;DHT22;1668;49.648;8.570;2023-08-30T01:44:32;15.10;99.90
3312;DHT22;1668;49.648;8.570;2023-08-30T01:47:00;15.10;99.90
3312;DHT22;1668;49.648;8.570;2023-08-30T01:49:30;15.10;99.90
3312;DHT22;1668;49.648;8.570;2023-08-30T01:51:58;15.10;99.90
3312;DHT22;1668;49.648;8.570;2023-08-30T01:54:25;15.10;99.90
3312;DHT22;1668;49.648;8.570;2023-08-30T01:56:53;15.10;99.90
3312;DHT22;1668;49.648;8.570;2023-08-30T01:59:20;15.10;99.90
3312;DHT22;1668;49.648;8.570;2023-08-30T02:01:48;15.10;99.90
3312;DHT22;1668;49.648;8.570;2023-08-30T02:04:16;15.10;99.90
3312;DHT22;1668;49.648;8.570;2023-08-30T02:06:48;15.00;99.90
3312;DHT22;1668;49.648;8.570;2023-08-30T02:09:21;15.00;99.90
3312;DHT22;1668;49.648;8.570;2023-08-30T02:11:51;15.00;99.90
3312;DHT22;1668;49.648;8.570;2023-08-30T02:14:18;15.00;99.90
3312;DHT22;1668;49.648;8.570;2023-08-30T02:16:48;15.00;99.90
3312;DHT22;1668;49.648;8.570;2023-08-30T02:19:16;15.00;99.90
3312;DHT22;1668;49.648;8.570;2023-08-30T02:21:46;15.00;99.90
3312;DHT22;1668;49.648;8.570;2023-08-30T02:24:13;15.00;99.90
3312;DHT22;1668;49.648;8.570;2023-08-30T02:26:40;15.00;99.90
3312;DHT22;1668;49.648;8.570;2023-08-30T02:29:07;15.00;99.90
3312;DHT22;1668;49.648;8.570;2023-08-30T02:31:35;15.00;99.90
3312;DHT22;1668;49.648;8.570;2023-08-30T02:34:04;15.00;99.90
3312;DHT22;1668;49.648;8.570;2023-08-30T02:36:31;15.00;99.90
3312;DHT22;1668;49.648;8.570;2023-08-30T02:38:58;15.00;99.90
3312;DHT22;1668;49.648;8.570;2023-08-30T02:41:24;15.00;99.90
3312;DHT22;1668;49.648;8.570;2023-08-30T02:43:51;15.00;99.90
3312;DHT22;1668;49.648;8.570;2023-08-30T02:46:18;15.00;99.90
3312;DHT22;1668;49.648;8.570;2023-08-30T02:48:45;15.00;99.90
3312;DHT22;1668;49.648;8.570;2023-08-30T02:51:13;15.00;99.90
3312;DHT22;1668;49.648;8.570;2023-08-30T02:53:40;15.00;99.90
3312;DHT22;1668;49.648;8.570;2023-08-30T02:56:08;15.00;99.90
3312;DHT22;1668;49.648;8.570;2023-08-30T02:58:36;15.00;99.90
3312;DHT22;1668;49.648;8.570;2023-08-30T03:01:03;15.00;99.90
3312;DHT22;1668;49.648;8.570;2023-08-30T03:03:30;15.00;99.90
3312;DHT22;1668;49.648;8.570;2023-08-30T03:05:57;14.90;99.90
3312;DHT22;1668;49.648;8.570;2023-08-30T03:08:25;15.00;99.90
3312;DHT22;1668;49.648;8.570;2023-08-30T03:10:52;14.90;99.90
3312;DHT22;1668;49.648;8.570;2023-08-30T03:13:20;14.90;99.90
3312;DHT22;1668;49.648;8.570;2023-08-30T03:15:47;14.90;99.90
3312;DHT22;1668;49.648;8.570;2023-08-30T03:18:14;14.90;99.90
3312;DHT22;1668;49.648;8.570;2023-08-30T03:20:40;14.90;99.90
3312;DHT22;1668;49.648;8.570;2023-08-30T03:23:07;15.00;99.90
3312;DHT22;1668;49.648;8.570;2023-08-30T03:25:36;14.90;99.90
3312;DHT22;1668;49.648;8.570;2023-08-30T03:28:03;15.00;99.90
3312;DHT22;1668;49.648;8.570;2023-08-30T03:30:31;15.00;99.90
3312;DHT22;1668;49.648;8.570;2023-08-30T03:32:58;15.00;99.90
3312;DHT22;1668;49.648;8.570;2023-08-30T03:35:25;15.00;99.90
3312;DHT22;1668;49.648;8.570;2023-08-30T03:37:51;15.00;99.90
3312;DHT22;1668;49.648;8.570;2023-08-30T03:40:18;15.00;99.90
3312;DHT22;1668;49.648;8.570;2023-08-30T03:42:47;15.00;99.90
3312;DHT22;1668;49.648;8.570;2023-08-30T03:45:14;14.90;99.90
3312;DHT22;1668;49.648;8.570;2023-08-30T03:47:41;14.90;99.90
3312;DHT22;1668;49.648;8.570;2023-08-30T03:50:08;14.90;99.90
3312;DHT22;1668;49.648;8.570;2023-08-30T03:52:35;15.00;99.90
3312;DHT22;1668;49.648;8.570;2023-08-30T03:55:02;14.90;99.90
3312;DHT22;1668;49.648;8.570;2023-08-30T03:57:29;15.00;99.90
3312;DHT22;1668;49.648;8.570;2023-08-30T03:59:57;15.00;99.90
3312;DHT22;1668;49.648;8.570;2023-08-30T04:02:25;14.90;99.90
3312;DHT22;1668;49.648;8.570;2023-08-30T04:04:52;14.90;99.90
3312;DHT22;1668;49.648;8.570;2023-08-30T04:07:19;14.90;99.90
3312;DHT22;1668;49.648;8.570;2023-08-30T04:09:46;14.90;99.90
3312;DHT22;1668;49.648;8.570;2023-08-30T04:12:12;14.90;99.90
3312;DHT22;1668;49.648;8.570;2023-08-30T04:14:39;14.90;99.90
3312;DHT22;1668;49.648;8.570;2023-08-30T04:17:08;14.90;99.90
3312;DHT22;1668;49.648;8.570;2023-08-30T04:19:35;14.90;99.90
3312;DHT22;1668;49.648;8.570;2023-08-30T04:22:02;14.90;99.90
3312;DHT22;1668;49.648;8.570;2023-08-30T04:24:28;14.90;99.90
3312;DHT22;1668;49.648;8.570;2023-08-30T04:26:55;14.90;99.90
3312;DHT22;1668;49.648;8.570;2023-08-30T04:29:22;14.90;99.90
3312;DHT22;1668;49.648;8.570;2023-08-30T04:31:49;14.90;99.90
3312;DHT22;1668;49.648;8.570;2023-08-30T04:34:18;14.90;99.90
3312;DHT22;1668;49.648;8.570;2023-08-30T04:36:45;14.90;99.90
3312;DHT22;1668;49.648;8.570;2023-08-30T04:39:13;14.90;99.90
3312;DHT22;1668;49.648;8.570;2023-08-30T04:41:40;14.90;99.90
3312;DHT22;1668;49.648;8.570;2023-08-30T04:44:07;14.90;99.90
3312;DHT22;1668;49.648;8.570;2023-08-30T04:46:34;14.90;99.90
3312;DHT22;1668;49.648;8.570;2023-08-30T04:49:01;14.90;99.90
3312;DHT22;1668;49.648;8.570;2023-08-30T04:51:29;14.90;99.90
3312;DHT22;1668;49.648;8.570;2023-08-30T04:53:56;14.90;99.90
3312;DHT22;1668;49.648;8.570;2023-08-30T04:56:24;14.90;99.90
3312;DHT22;1668;49.648;8.570;2023-08-30T04:58:51;14.90;99.90
3312;DHT22;1668;49.648;8.570;2023-08-30T05:01:18;14.90;99.90
3312;DHT22;1668;49.648;8.570;2023-08-30T05:03:45;14.90;99.90
3312;DHT22;1668;49.648;8.570;2023-08-30T05:06:12;14.90;99.90
3312;DHT22;1668;49.648;8.570;2023-08-30T05:08:43;14.90;99.90
3312;DHT22;1668;49.648;8.570;2023-08-30T05:11:09;14.90;99.90
3312;DHT22;1668;49.648;8.570;2023-08-30T05:13:36;14.90;99.90
3312;DHT22;1668;49.648;8.570;2023-08-30T05:16:03;14.90;99.90
3312;DHT22;1668;49.648;8.570;2023-08-30T05:18:30;14.90;99.90
3312;DHT22;1668;49.648;8.570;2023-08-30T05:20:58;14.90;99.90
3312;DHT22;1668;49.648;8.570;2023-08-30T05:23:25;14.90;99.90
3312;DHT22;1668;49.648;8.570;2023-08-30T05:25:53;14.90;99.90
3312;DHT22;1668;49.648;8.570;2023-08-30T05:28:19;14.90;99.90
3312;DHT22;1668;49.648;8.570;2023-08-30T05:30:46;14.90;99.90
3312;DHT22;1668;49.648;8.570;2023-08-30T05:33:13;14.90;99.90
3312;DHT22;1668;49.648;8.570;2023-08-30T05:35:40;14.90;99.90
3312;DHT22;1668;49.648;8.570;2023-08-30T05:38:07;14.90;99.90
3312;DHT22;1668;49.648;8.570;2023-08-30T05:40:34;14.90;99.90
3312;DHT22;1668;49.648;8.570;2023-08-30T05:43:03;14.90;99.90
3312;DHT22;1668;49.648;8.570;2023-08-30T05:45:30;14.90;99.90
3312;DHT22;1668;49.648;8.570;2023-08-30T05:47:57;14.90;99.90
3312;DHT22;1668;49.648;8.570;2023-08-30T05:50:24;15.00;99.90
3312;DHT22;1668;49.648;8.570;2023-08-30T05:52:50;14.90;99.90
3312;DHT22;1668;49.648;8.570;2023-08-30T05:55:17;15.00;99.90
3312;DHT22;1668;49.648;8.570;2023-08-30T05:57:44;15.00;99.90
3312;DHT22;1668;49.648;8.570;2023-08-30T06:00:13;15.00;99.90
3312;DHT22;1668;49.648;8.570;2023-08-30T06:02:40;15.10;99.90
3312;DHT22;1668;49.648;8.570;2023-08-30T06:05:08;15.00;99.90
3312;DHT22;1668;49.648;8.570;2023-08-30T06:07:35;15.00;99.90
3312;DHT22;1668;49.648;8.570;2023-08-30T06:10:02;15.10;99.90
3312;DHT22;1668;49.648;8.570;2023-08-30T06:12:30;15.10;99.90
3312;DHT22;1668;49.648;8.570;2023-08-30T06:14:57;15.10;99.90
3312;DHT22;1668;49.648;8.570;2023-08-30T06:17:25;15.10;99.90
3312;DHT22;1668;49.648;8.570;2023-08-30T06:19:52;15.10;99.90
3312;DHT22;1668;49.648;8.570;2023-08-30T06:22:18;15.10;99.90
3312;DHT22;1668;49.648;8.570;2023-08-30T06:24:45;15.10;99.90
3312;DHT22;1668;49.648;8.570;2023-08-30T06:27:12;15.20;99.90
3312;DHT22;1668;49.648;8.570;2023-08-30T06:29:39;15.20;99.90
3312;DHT22;1668;49.648;8.570;2023-08-30T06:32:06;15.20;99.90
3312;DHT22;1668;49.648;8.570;2023-08-30T06:34:34;15.30;99.90
3312;DHT22;1668;49.648;8.570;2023-08-30T06:37:01;15.30;99.90
3312;DHT22;1668;49.648;8.570;2023-08-30T06:39:32;15.40;99.90
3312;DHT22;1668;49.648;8.570;2023-08-30T06:42:00;15.40;99.90
3312;DHT22;1668;49.648;8.570;2023-08-30T06:44:27;15.30;99.90
3312;DHT22;1668;49.648;8.570;2023-08-30T06:46:55;15.40;99.90
3312;DHT22;1668;49.648;8.570;2023-08-30T06:49:22;15.40;99.90
3312;DHT22;1668;49.648;8.570;2023-08-30T06:51:50;15.40;99.90
3312;DHT22;1668;49.648;8.570;2023-08-30T06:54:17;15.40;99.90
3312;DHT22;1668;49.648;8.570;2023-08-30T06:56:56;15.50;99.90
3312;DHT22;1668;49.648;8.570;2023-08-30T06:59:23;15.50;99.90
3312;DHT22;1668;49.648;8.570;2023-08-30T07:01:50;15.50;99.90
3312;DHT22;1668;49.648;8.570;2023-08-30T07:04:16;15.50;99.90
3312;DHT22;1668;49.648;8.570;2023-08-30T07:06:43;15.50;99.90
3312;DHT22;1668;49.648;8.570;2023-08-30T07:09:12;15.60;99.90
3312;DHT22;1668;49.648;8.570;2023-08-30T07:11:41;15.60;99.90
3312;DHT22;1668;49.648;8.570;2023-08-30T07:14:09;15.60;99.90
3312;DHT22;1668;49.648;8.570;2023-08-30T07:16:36;15.60;99.90
3312;DHT22;1668;49.648;8.570;2023-08-30T07:19:03;15.60;99.90
3312;DHT22;1668;49.648;8.570;2023-08-30T07:21:30;15.70;99.90
3312;DHT22;1668;49.648;8.570;2023-08-30T07:23:58;15.70;99.90
3312;DHT22;1668;49.648;8.570;2023-08-30T07:26:26;15.70;99.90
3312;DHT22;1668;49.648;8.570;2023-08-30T07:28:54;15.80;99.90
3312;DHT22;1668;49.648;8.570;2023-08-30T07:31:20;15.80;99.90
3312;DHT22;1668;49.648;8.570;2023-08-30T07:33:47;15.90;99.90
3312;DHT22;1668;49.648;8.570;2023-08-30T07:36:14;15.90;99.90
3312;DHT22;1668;49.648;8.570;2023-08-30T07:38:41;15.90;99.90
3312;DHT22;1668;49.648;8.570;2023-08-30T07:41:09;15.90;99.90
3312;DHT22;1668;49.648;8.570;2023-08-30T07:43:37;15.90;99.90
3312;DHT22;1668;49.648;8.570;2023-08-30T07:46:04;16.00;99.90
3312;DHT22;1668;49.648;8.570;2023-08-30T07:48:31;16.00;99.90
3312;DHT22;1668;49.648;8.570;2023-08-30T07:50:58;16.10;99.90
3312;DHT22;1668;49.648;8.570;2023-08-30T07:53:25;16.10;99.90
3312;DHT22;1668;49.648;8.570;2023-08-30T07:55:52;16.10;99.90
3312;DHT22;1668;49.648;8.570;2023-08-30T07:58:19;16.20;99.90
3312;DHT22;1668;49.648;8.570;2023-08-30T08:00:50;16.20;99.90
3312;DHT22;1668;49.648;8.570;2023-08-30T08:03:17;16.30;99.90
3312;DHT22;1668;49.648;8.570;2023-08-30T08:05:44;16.30;99.90
3312;DHT22;1668;49.648;8.570;2023-08-30T08:08:11;16.30;99.90
3312;DHT22;1668;49.648;8.570;2023-08-30T08:10:38;16.40;99.90
3312;DHT22;1668;49.648;8.570;2023-08-30T08:13:05;16.40;99.90
3312;DHT22;1668;49.648;8.570;2023-08-30T08:15:32;16.50;99.90
3312;DHT22;1668;49.648;8.570;2023-08-30T08:18:00;16.50;99.90
3312;DHT22;1668;49.648;8.570;2023-08-30T08:20:28;16.50;99.90
3312;DHT22;1668;49.648;8.570;2023-08-30T08:22:55;16.50;99.90
3312;DHT22;1668;49.648;8.570;2023-08-30T08:25:22;16.70;99.90
3312;DHT22;1668;49.648;8.570;2023-08-30T08:27:49;16.70;99.90
3312;DHT22;1668;49.648;8.570;2023-08-30T08:30:16;16.70;99.90
3312;DHT22;1668;49.648;8.570;2023-08-30T08:32:45;16.80;99.90
3312;DHT22;1668;49.648;8.570;2023-08-30T08:35:14;16.80;99.90
3312;DHT22;1668;49.648;8.570;2023-08-30T08:37:42;16.90;99.90
3312;DHT22;1668;49.648;8.570;2023-08-30T08:40:10;16.90;99.90
3312;DHT22;1668;49.648;8.570;2023-08-30T08:42:37;17.00;99.90
3312;DHT22;1668;49.648;8.570;2023-08-30T08:45:04;17.00;99.90
3312;DHT22;1668;49.648;8.570;2023-08-30T08:47:31;17.10;99.90
3312;DHT22;1668;49.648;8.570;2023-08-30T08:49:59;17.10;99.90
3312;DHT22;1668;49.648;8.570;2023-08-30T08:52:28;17.10;99.90
3312;DHT22;1668;49.648;8.570;2023-08-30T08:54:56;17.20;99.90
3312;DHT22;1668;49.648;8.570;2023-08-30T08:57:26;17.40;99.90
3312;DHT22;1668;49.648;8.570;2023-08-30T08:59:56;17.50;99.90
3312;DHT22;1668;49.648;8.570;2023-08-30T09:02:23;17.50;99.90
3312;DHT22;1668;49.648;8.570;2023-08-30T09:04:52;17.60;99.90
3312;DHT22;1668;49.648;8.570;2023-08-30T09:07:19;17.60;99.90
3312;DHT22;1668;49.648;8.570;2023-08-30T09:09:48;17.70;99.90
3312;DHT22;1668;49.648;8.570;2023-08-30T09:12:15;17.70;99.90
3312;DHT22;1668;49.648;8.570;2023-08-30T09:14:52;17.70;99.90
3312;DHT22;1668;49.648;8.570;2023-08-30T09:17:19;17.70;99.90
3312;DHT22;1668;49.648;8.570;2023-08-30T09:19:46;17.80;99.90
3312;DHT22;1668;49.648;8.570;2023-08-30T09:22:12;17.70;99.90
3312;DHT22;1668;49.648;8.570;2023-08-30T09:24:41;17.80;99.90
3312;DHT22;1668;49.648;8.570;2023-08-30T09:27:09;17.80;99.90
3312;DHT22;1668;49.648;8.570;2023-08-30T09:29:36;17.80;99.90
3312;DHT22;1668;49.648;8.570;2023-08-30T09:32:04;17.80;99.90
3312;DHT22;1668;49.648;8.570;2023-08-30T09:34:31;17.90;99.90
3312;DHT22;1668;49.648;8.570;2023-08-30T09:36:58;17.90;99.90
3312;DHT22;1668;49.648;8.570;2023-08-30T09:39:27;18.00;99.90
3312;DHT22;1668;49.648;8.570;2023-08-30T09:41:54;18.10;99.90
3312;DHT22;1668;49.648;8.570;2023-08-30T09:44:22;18.10;99.90
3312;DHT22;1668;49.648;8.570;2023-08-30T09:46:51;18.10;99.90
3312;DHT22;1668;49.648;8.570;2023-08-30T09:49:19;18.10;99.90
3312;DHT22;1668;49.648;8.570;2023-08-30T09:51:48;18.20;99.90
3312;DHT22;1668;49.648;8.570;2023-08-30T09:54:16;18.20;99.90
3312;DHT22;1668;49.648;8.570;2023-08-30T09:56:44;18.30;99.90
3312;DHT22;1668;49.648;8.570;2023-08-30T09:59:12;18.40;99.90
3312;DHT22;1668;49.648;8.570;2023-08-30T10:01:42;18.40;99.90
3312;DHT22;1668;49.648;8.570;2023-08-30T10:04:10;18.40;99.90
3312;DHT22;1668;49.648;8.570;2023-08-30T10:06:38;18.40;99.90
3312;DHT22;1668;49.648;8.570;2023-08-30T10:09:06;18.40;99.90
3312;DHT22;1668;49.648;8.570;2023-08-30T10:11:35;18.50;99.90
3312;DHT22;1668;49.648;8.570;2023-08-30T10:14:03;18.50;99.90
3312;DHT22;1668;49.648;8.570;2023-08-30T10:16:40;18.60;99.90
3312;DHT22;1668;49.648;8.570;2023-08-30T10:19:14;18.60;99.90
3312;DHT22;1668;49.648;8.570;2023-08-30T10:21:43;18.70;99.90
3312;DHT22;1668;49.648;8.570;2023-08-30T10:24:12;18.80;99.90
3312;DHT22;1668;49.648;8.570;2023-08-30T10:26:42;18.90;99.90
3312;DHT22;1668;49.648;8.570;2023-08-30T10:29:10;18.90;99.90
3312;DHT22;1668;49.648;8.570;2023-08-30T10:31:38;18.90;99.90
3312;DHT22;1668;49.648;8.570;2023-08-30T10:34:14;19.00;99.90
3312;DHT22;1668;49.648;8.570;2023-08-30T10:36:42;19.10;99.90
3312;DHT22;1668;49.648;8.570;2023-08-30T10:39:11;19.10;99.90
3312;DHT22;1668;49.648;8.570;2023-08-30T10:41:54;19.10;99.90
3312;DHT22;1668;49.648;8.570;2023-08-30T10:44:22;19.00;99.90
3312;DHT22;1668;49.648;8.570;2023-08-30T10:46:52;19.00;99.90
3312;DHT22;1668;49.648;8.570;2023-08-30T10:49:21;19.10;99.90
3312;DHT22;1668;49.648;8.570;2023-08-30T10:51:55;19.10;99.90
3312;DHT22;1668;49.648;8.570;2023-08-30T10:54:23;19.10;99.90
3312;DHT22;1668;49.648;8.570;2023-08-30T10:56:55;19.30;99.90
3312;DHT22;1668;49.648;8.570;2023-08-30T10:59:24;19.40;99.90
3312;DHT22;1668;49.648;8.570;2023-08-30T11:01:52;19.30;99.90
3312;DHT22;1668;49.648;8.570;2023-08-30T11:04:20;19.40;99.90
3312;DHT22;1668;49.648;8.570;2023-08-30T11:06:50;19.50;99.90
3312;DHT22;1668;49.648;8.570;2023-08-30T11:09:18;19.80;99.90
3312;DHT22;1668;49.648;8.570;2023-08-30T11:11:45;19.80;97.10
3312;DHT22;1668;49.648;8.570;2023-08-30T11:14:13;19.80;96.80
3312;DHT22;1668;49.648;8.570;2023-08-30T11:16:40;19.70;97.80
3312;DHT22;1668;49.648;8.570;2023-08-30T11:19:08;19.80;96.40
3312;DHT22;1668;49.648;8.570;2023-08-30T11:21:39;19.90;97.20
3312;DHT22;1668;49.648;8.570;2023-08-30T11:24:07;20.00;96.70
3312;DHT22;1668;49.648;8.570;2023-08-30T11:26:34;20.10;97.00
3312;DHT22;1668;49.648;8.570;2023-08-30T11:29:05;20.10;94.40
3312;DHT22;1668;49.648;8.570;2023-08-30T11:31:31;20.00;94.30
3312;DHT22;1668;49.648;8.570;2023-08-30T11:33:59;20.10;93.80
3312;DHT22;1668;49.648;8.570;2023-08-30T11:36:28;20.00;95.20
3312;DHT22;1668;49.648;8.570;2023-08-30T11:38:57;20.10;95.20
3312;DHT22;1668;49.648;8.570;2023-08-30T11:41:24;20.20;95.90
3312;DHT22;1668;49.648;8.570;2023-08-30T11:43:52;20.20;94.40
3312;DHT22;1668;49.648;8.570;2023-08-30T11:46:20;20.20;93.10
3312;DHT22;1668;49.648;8.570;2023-08-30T11:48:48;20.40;94.50
3312;DHT22;1668;49.648;8.570;2023-08-30T11:51:16;20.40;89.70
3312;DHT22;1668;49.648;8.570;2023-08-30T11:53:44;20.40;90.40
3312;DHT22;1668;49.648;8.570;2023-08-30T11:56:13;20.50;93.20
3312;DHT22;1668;49.648;8.570;2023-08-30T11:58:40;20.70;94.30
3312;DHT22;1668;49.648;8.570;2023-08-30T12:01:08;20.80;90.40
3312;DHT22;1668;49.648;8.570;2023-08-30T12:03:35;20.90;90.30
3312;DHT22;1668;49.648;8.570;2023-08-30T12:06:02;20.90;91.30
3312;DHT22;1668;49.648;8.570;2023-08-30T12:08:31;20.90;87.70
3312;DHT22;1668;49.648;8.570;2023-08-30T12:10:58;20.90;88.20
3312;DHT22;1668;49.648;8.570;2023-08-30T12:13:28;20.90;90.30
3312;DHT22;1668;49.648;8.570;2023-08-30T12:15:56;20.80;89.50
3312;DHT22;1668;49.648;8.570;2023-08-30T12:18:23;20.90;90.20
3312;DHT22;1668;49.648;8.570;2023-08-30T12:20:54;21.00;90.40
3312;DHT22;1668;49.648;8.570;2023-08-30T12:23:22;21.00;90.20
3312;DHT22;1668;49.648;8.570;2023-08-30T12:26:03;20.90;90.20
3312;DHT22;1668;49.648;8.570;2023-08-30T12:28:33;20.80;90.60
3312;DHT22;1668;49.648;8.570;2023-08-30T12:31:01;20.80;90.10
3312;DHT22;1668;49.648;8.570;2023-08-30T12:33:29;20.80;91.30
3312;DHT22;1668;49.648;8.570;2023-08-30T12:35:57;20.80;91.00
3312;DHT22;1668;49.648;8.570;2023-08-30T12:38:24;20.80;91.40
3312;DHT22;1668;49.648;8.570;2023-08-30T12:40:53;20.70;89.30
3312;DHT22;1668;49.648;8.570;2023-08-30T12:43:20;20.70;89.70
3312;DHT22;1668;49.648;8.570;2023-08-30T12:45:50;20.80;89.90
3312;DHT22;1668;49.648;8.570;2023-08-30T12:48:18;20.90;89.80
3312;DHT22;1668;49.648;8.570;2023-08-30T12:50:47;20.90;88.10
3312;DHT22;1668;49.648;8.570;2023-08-30T12:53:14;20.90;90.10
3312;DHT22;1668;49.648;8.570;2023-08-30T12:55:42;20.80;88.60
3312;DHT22;1668;49.648;8.570;2023-08-30T12:58:09;20.80;85.60
3312;DHT22;1668;49.648;8.570;2023-08-30T13:00:37;20.80;85.90
3312;DHT22;1668;49.648;8.570;2023-08-30T13:03:05;20.90;88.10
3312;DHT22;1668;49.648;8.570;2023-08-30T13:05:32;20.90;86.00
3312;DHT22;1668;49.648;8.570;2023-08-30T13:08:00;20.90;86.40
3312;DHT22;1668;49.648;8.570;2023-08-30T13:10:27;20.90;86.20
3312;DHT22;1668;49.648;8.570;2023-08-30T13:12:54;21.00;90.60
3312;DHT22;1668;49.648;8.570;2023-08-30T13:15:21;21.00;90.60
3312;DHT22;1668;49.648;8.570;2023-08-30T13:17:47;21.00;84.80
3312;DHT22;1668;49.648;8.570;2023-08-30T13:20:16;21.10;83.80
3312;DHT22;1668;49.648;8.570;2023-08-30T13:22:42;21.20;81.10
3312;DHT22;1668;49.648;8.570;2023-08-30T13:25:09;21.30;78.40
3312;DHT22;1668;49.648;8.570;2023-08-30T13:27:36;21.50;74.70
3312;DHT22;1668;49.648;8.570;2023-08-30T13:30:04;21.70;65.30
3312;DHT22;1668;49.648;8.570;2023-08-30T13:32:31;21.90;64.10
3312;DHT22;1668;49.648;8.570;2023-08-30T13:34:59;22.00;62.10
3312;DHT22;1668;49.648;8.570;2023-08-30T13:37:27;21.90;60.90
3312;DHT22;1668;49.648;8.570;2023-08-30T13:39:53;22.00;61.90
3312;DHT22;1668;49.648;8.570;2023-08-30T13:42:20;22.10;61.50
3312;DHT22;1668;49.648;8.570;2023-08-30T13:44:50;22.10;59.20
3312;DHT22;1668;49.648;8.570;2023-08-30T13:47:17;22.20;57.20
3312;DHT22;1668;49.648;8.570;2023-08-30T13:49:44;22.30;55.90
3312;DHT22;1668;49.648;8.570;2023-08-30T13:52:11;22.40;56.40
3312;DHT22;1668;49.648;8.570;2023-08-30T13:54:39;22.40;54.20
3312;DHT22;1668;49.648;8.570;2023-08-30T13:57:06;22.30;54.40
3312;DHT22;1668;49.648;8.570;2023-08-30T13:59:33;22.40;54.10
3312;DHT22;1668;49.648;8.570;2023-08-30T14:02:02;22.50;51.50
3312;DHT22;1668;49.648;8.570;2023-08-30T14:04:29;22.70;51.10
3312;DHT22;1668;49.648;8.570;2023-08-30T14:06:58;22.80;48.50
3312;DHT22;1668;49.648;8.570;2023-08-30T14:09:25;23.00;50.20
3312;DHT22;1668;49.648;8.570;2023-08-30T14:11:53;23.10;49.90
3312;DHT22;1668;49.648;8.570;2023-08-30T14:14:20;23.00;48.90
3312;DHT22;1668;49.648;8.570;2023-08-30T14:16:47;23.20;48.00
3312;DHT22;1668;49.648;8.570;2023-08-30T14:19:15;23.20;49.20
3312;DHT22;1668;49.648;8.570;2023-08-30T14:21:42;23.30;48.50
3312;DHT22;1668;49.648;8.570;2023-08-30T14:24:09;23.30;47.10
3312;DHT22;1668;49.648;8.570;2023-08-30T14:26:36;23.40;47.40
3312;DHT22;1668;49.648;8.570;2023-08-30T14:29:04;23.50;48.00
3312;DHT22;1668;49.648;8.570;2023-08-30T14:31:31;23.60;48.60
3312;DHT22;1668;49.648;8.570;2023-08-30T14:33:59;23.50;47.10
3312;DHT22;1668;49.648;8.570;2023-08-30T14:36:25;23.50;48.00
3312;DHT22;1668;49.648;8.570;2023-08-30T14:38:52;23.70;48.90
3312;DHT22;1668;49.648;8.570;2023-08-30T14:41:19;23.80;49.50
3312;DHT22;1668;49.648;8.570;2023-08-30T14:43:46;24.00;46.80
3312;DHT22;1668;49.648;8.570;2023-08-30T14:46:14;23.90;49.10
3312;DHT22;1668;49.648;8.570;2023-08-30T14:48:43;23.90;48.60
3312;DHT22;1668;49.648;8.570;2023-08-30T14:51:10;23.70;47.80
3312;DHT22;1668;49.648;8.570;2023-08-30T14:53:37;23.70;48.90
3312;DHT22;1668;49.648;8.570;2023-08-30T14:56:04;24.00;49.20
3312;DHT22;1668;49.648;8.570;2023-08-30T14:58:33;24.00;48.80
3312;DHT22;1668;49.648;8.570;2023-08-30T15:01:00;23.90;48.30
3312;DHT22;1668;49.648;8.570;2023-08-30T15:03:29;23.80;48.30
3312;DHT22;1668;49.648;8.570;2023-08-30T15:05:56;23.70;49.10
3312;DHT22;1668;49.648;8.570;2023-08-30T15:08:24;23.60;48.10
3312;DHT22;1668;49.648;8.570;2023-08-30T15:10:51;23.70;46.90
3312;DHT22;1668;49.648;8.570;2023-08-30T15:13:18;23.50;45.60
3312;DHT22;1668;49.648;8.570;2023-08-30T15:15:45;23.50;45.70
3312;DHT22;1668;49.648;8.570;2023-08-30T15:18:12;23.70;44.60
3312;DHT22;1668;49.648;8.570;2023-08-30T15:20:41;23.70;44.80
3312;DHT22;1668;49.648;8.570;2023-08-30T15:25:43;23.60;45.10
3312;DHT22;1668;49.648;8.570;2023-08-30T15:28:10;23.60;45.70
3312;DHT22;1668;49.648;8.570;2023-08-30T15:30:36;23.60;46.30
3312;DHT22;1668;49.648;8.570;2023-08-30T15:33:06;23.40;45.90
3312;DHT22;1668;49.648;8.570;2023-08-30T15:35:36;23.30;47.00
3312;DHT22;1668;49.648;8.570;2023-08-30T15:38:05;23.20;47.80
3312;DHT22;1668;49.648;8.570;2023-08-30T15:40:32;23.10;48.00
3312;DHT22;1668;49.648;8.570;2023-08-30T15:43:00;23.00;48.10
3312;DHT22;1668;49.648;8.570;2023-08-30T15:45:28;22.90;49.00
3312;DHT22;1668;49.648;8.570;2023-08-30T15:47:55;22.90;49.10
3312;DHT22;1668;49.648;8.570;2023-08-30T15:50:22;22.90;50.00
3312;DHT22;1668;49.648;8.570;2023-08-30T15:52:49;22.80;50.90
3312;DHT22;1668;49.648;8.570;2023-08-30T15:55:17;22.80;50.70
3312;DHT22;1668;49.648;8.570;2023-08-30T15:57:45;22.70;51.30
3312;DHT22;1668;49.648;8.570;2023-08-30T16:00:13;22.60;51.90
3312;DHT22;1668;49.648;8.570;2023-08-30T16:02:40;22.60;51.40
3312;DHT22;1668;49.648;8.570;2023-08-30T16:05:07;22.60;51.60
3312;DHT22;1668;49.648;8.570;2023-08-30T16:07:34;22.50;51.00